sensor_id;sensor_type;location;lat;lon;timestamp;P1;durP1;ratioP1;P2;durP2;ratioP2
51296;SDS011;37380;45.186;9.792;2023-10-19T00:01:22;58.22;;;39.88;;
51296;SDS011;37380;45.186;9.792;2023-10-19T00:04:26;65.50;;;43.40;;
51296;SDS011;37380;45.186;9.792;2023-10-19T00:07:29;64.55;;;44.08;;
51296;SDS011;37380;45.186;9.792;2023-10-19T00:10:24;57.33;;;42.15;;
51296;SDS011;37380;45.186;9.792;2023-10-19T00:12:52;70.10;;;45.97;;
51296;SDS011;37380;45.186;9.792;2023-10-19T00:17:58;63.95;;;44.60;;
51296;SDS011;37380;45.186;9.792;2023-10-19T00:20:44;63.97;;;46.30;;
51296;SDS011;37380;45.186;9.792;2023-10-19T00:23:14;69.57;;;46.78;;
51296;SDS011;37380;45.186;9.792;2023-10-19T00:25:45;75.28;;;46.50;;
51296;SDS011;37380;45.186;9.792;2023-10-19T00:28:18;64.72;;;48.85;;
51296;SDS011;37380;45.186;9.792;2023-10-19T00:30:45;76.07;;;48.70;;
51296;SDS011;37380;45.186;9.792;2023-10-19T00:33:16;67.50;;;46.35;;
51296;SDS011;37380;45.186;9.792;2023-10-19T00:35:45;63.80;;;47.95;;
51296;SDS011;37380;45.186;9.792;2023-10-19T00:38:31;64.90;;;48.60;;
51296;SDS011;37380;45.186;9.792;2023-10-19T00:41:08;71.68;;;49.90;;
51296;SDS011;37380;45.186;9.792;2023-10-19T00:43:42;77.45;;;49.63;;
51296;SDS011;37380;45.186;9.792;2023-10-19T00:46:14;72.60;;;51.08;;
51296;SDS011;37380;45.186;9.792;2023-10-19T00:48:54;68.22;;;51.63;;
51296;SDS011;37380;45.186;9.792;2023-10-19T00:54:43;65.53;;;49.80;;
51296;SDS011;37380;45.186;9.792;2023-10-19T00:57:33;77.03;;;50.03;;
51296;SDS011;37380;45.186;9.792;2023-10-19T01:00:09;71.55;;;49.85;;
51296;SDS011;37380;45.186;9.792;2023-10-19T01:03:24;77.13;;;52.53;;
51296;SDS011;37380;45.186;9.792;2023-10-19T01:06:06;72.63;;;52.38;;
51296;SDS011;37380;45.186;9.792;2023-10-19T01:08:37;83.55;;;54.72;;
51296;SDS011;37380;45.186;9.792;2023-10-19T01:11:11;80.25;;;54.40;;
51296;SDS011;37380;45.186;9.792;2023-10-19T01:13:42;68.75;;;49.92;;
51296;SDS011;37380;45.186;9.792;2023-10-19T01:16:14;80.15;;;54.75;;
51296;SDS011;37380;45.186;9.792;2023-10-19T01:18:48;71.50;;;54.70;;
51296;SDS011;37380;45.186;9.792;2023-10-19T01:21:21;73.15;;;53.72;;
51296;SDS011;37380;45.186;9.792;2023-10-19T01:23:52;76.53;;;54.17;;
51296;SDS011;37380;45.186;9.792;2023-10-19T01:26:19;70.50;;;52.03;;
51296;SDS011;37380;45.186;9.792;2023-10-19T01:28:53;79.60;;;54.60;;
51296;SDS011;37380;45.186;9.792;2023-10-19T01:31:26;77.93;;;54.35;;
51296;SDS011;37380;45.186;9.792;2023-10-19T01:33:57;76.57;;;52.83;;
51296;SDS011;37380;45.186;9.792;2023-10-19T01:36:25;68.43;;;49.97;;
51296;SDS011;37380;45.186;9.792;2023-10-19T01:39:01;80.80;;;52.50;;
51296;SDS011;37380;45.186;9.792;2023-10-19T01:42:05;70.95;;;53.22;;
51296;SDS011;37380;45.186;9.792;2023-10-19T01:44:59;71.03;;;53.30;;
51296;SDS011;37380;45.186;9.792;2023-10-19T01:47:26;68.03;;;52.00;;
51296;SDS011;37380;45.186;9.792;2023-10-19T01:49:55;76.75;;;57.33;;
51296;SDS011;37380;45.186;9.792;2023-10-19T01:52:22;67.25;;;55.25;;
51296;SDS011;37380;45.186;9.792;2023-10-19T01:54:51;66.07;;;51.65;;
51296;SDS011;37380;45.186;9.792;2023-10-19T01:59:59;69.85;;;52.88;;
51296;SDS011;37380;45.186;9.792;2023-10-19T02:06:02;72.93;;;53.33;;
51296;SDS011;37380;45.186;9.792;2023-10-19T02:08:38;67.93;;;51.15;;
51296;SDS011;37380;45.186;9.792;2023-10-19T02:11:06;79.15;;;54.33;;
51296;SDS011;37380;45.186;9.792;2023-10-19T02:13:46;78.30;;;53.45;;
51296;SDS011;37380;45.186;9.792;2023-10-19T02:16:13;80.68;;;54.00;;
51296;SDS011;37380;45.186;9.792;2023-10-19T02:18:42;75.28;;;55.50;;
51296;SDS011;37380;45.186;9.792;2023-10-19T02:21:10;69.95;;;52.50;;
51296;SDS011;37380;45.186;9.792;2023-10-19T02:23:41;74.85;;;53.55;;
51296;SDS011;37380;45.186;9.792;2023-10-19T02:26:08;85.13;;;55.40;;
51296;SDS011;37380;45.186;9.792;2023-10-19T02:28:42;80.45;;;54.10;;
51296;SDS011;37380;45.186;9.792;2023-10-19T02:31:39;62.08;;;49.30;;
51296;SDS011;37380;45.186;9.792;2023-10-19T02:34:08;79.05;;;54.25;;
51296;SDS011;37380;45.186;9.792;2023-10-19T02:36:37;74.05;;;52.72;;
51296;SDS011;37380;45.186;9.792;2023-10-19T02:39:07;76.10;;;52.33;;
51296;SDS011;37380;45.186;9.792;2023-10-19T02:41:44;75.90;;;54.50;;
51296;SDS011;37380;45.186;9.792;2023-10-19T02:44:17;71.65;;;55.13;;
51296;SDS011;37380;45.186;9.792;2023-10-19T02:46:46;73.57;;;52.70;;
51296;SDS011;37380;45.186;9.792;2023-10-19T02:49:18;74.45;;;51.95;;
51296;SDS011;37380;45.186;9.792;2023-10-19T02:51:50;75.30;;;52.35;;
51296;SDS011;37380;45.186;9.792;2023-10-19T02:54:20;73.50;;;55.58;;
51296;SDS011;37380;45.186;9.792;2023-10-19T02:56:54;79.15;;;52.70;;
51296;SDS011;37380;45.186;9.792;2023-10-19T02:59:32;71.47;;;56.22;;
51296;SDS011;37380;45.186;9.792;2023-10-19T03:02:33;79.15;;;55.08;;
51296;SDS011;37380;45.186;9.792;2023-10-19T03:05:34;77.75;;;55.45;;
51296;SDS011;37380;45.186;9.792;2023-10-19T03:08:29;73.75;;;54.67;;
51296;SDS011;37380;45.186;9.792;2023-10-19T03:10:56;78.18;;;55.00;;
51296;SDS011;37380;45.186;9.792;2023-10-19T03:13:31;69.05;;;53.67;;
51296;SDS011;37380;45.186;9.792;2023-10-19T03:15:59;76.65;;;59.00;;
51296;SDS011;37380;45.186;9.792;2023-10-19T03:18:35;74.82;;;56.67;;
51296;SDS011;37380;45.186;9.792;2023-10-19T03:21:03;69.97;;;54.20;;
51296;SDS011;37380;45.186;9.792;2023-10-19T03:23:30;80.15;;;58.25;;
51296;SDS011;37380;45.186;9.792;2023-10-19T03:26:01;71.57;;;54.85;;
51296;SDS011;37380;45.186;9.792;2023-10-19T03:28:46;73.63;;;55.08;;
51296;SDS011;37380;45.186;9.792;2023-10-19T03:31:14;67.90;;;52.58;;
51296;SDS011;37380;45.186;9.792;2023-10-19T03:33:44;77.70;;;53.40;;
51296;SDS011;37380;45.186;9.792;2023-10-19T03:36:16;64.70;;;52.42;;
51296;SDS011;37380;45.186;9.792;2023-10-19T03:38:43;76.53;;;56.65;;
51296;SDS011;37380;45.186;9.792;2023-10-19T03:41:10;65.32;;;52.10;;
51296;SDS011;37380;45.186;9.792;2023-10-19T03:43:38;69.10;;;52.53;;
51296;SDS011;37380;45.186;9.792;2023-10-19T03:46:08;75.32;;;53.35;;
51296;SDS011;37380;45.186;9.792;2023-10-19T03:48:56;71.57;;;52.83;;
51296;SDS011;37380;45.186;9.792;2023-10-19T03:51:59;69.13;;;53.83;;
51296;SDS011;37380;45.186;9.792;2023-10-19T03:54:50;76.28;;;54.92;;
51296;SDS011;37380;45.186;9.792;2023-10-19T03:57:17;74.57;;;56.08;;
51296;SDS011;37380;45.186;9.792;2023-10-19T04:00:03;76.57;;;53.63;;
51296;SDS011;37380;45.186;9.792;2023-10-19T04:03:08;70.45;;;52.60;;
51296;SDS011;37380;45.186;9.792;2023-10-19T04:06:01;75.13;;;54.90;;
51296;SDS011;37380;45.186;9.792;2023-10-19T04:08:30;78.38;;;53.65;;
51296;SDS011;37380;45.186;9.792;2023-10-19T04:11:02;70.20;;;55.72;;
51296;SDS011;37380;45.186;9.792;2023-10-19T04:13:55;76.18;;;54.35;;
51296;SDS011;37380;45.186;9.792;2023-10-19T04:16:22;75.43;;;54.50;;
51296;SDS011;37380;45.186;9.792;2023-10-19T04:18:49;73.93;;;55.22;;
51296;SDS011;37380;45.186;9.792;2023-10-19T04:21:16;74.53;;;53.22;;
51296;SDS011;37380;45.186;9.792;2023-10-19T04:23:43;79.25;;;55.22;;
51296;SDS011;37380;45.186;9.792;2023-10-19T04:26:13;79.78;;;53.15;;
51296;SDS011;37380;45.186;9.792;2023-10-19T04:28:41;78.63;;;56.42;;
51296;SDS011;37380;45.186;9.792;2023-10-19T04:31:12;70.28;;;53.53;;
51296;SDS011;37380;45.186;9.792;2023-10-19T04:33:42;73.25;;;55.38;;
51296;SDS011;37380;45.186;9.792;2023-10-19T04:36:19;77.28;;;57.63;;
51296;SDS011;37380;45.186;9.792;2023-10-19T04:39:20;80.30;;;55.20;;
51296;SDS011;37380;45.186;9.792;2023-10-19T04:42:23;71.75;;;54.78;;
51296;SDS011;37380;45.186;9.792;2023-10-19T04:45:19;81.00;;;57.38;;
51296;SDS011;37380;45.186;9.792;2023-10-19T04:47:49;79.45;;;57.53;;
51296;SDS011;37380;45.186;9.792;2023-10-19T04:50:19;79.93;;;57.50;;
51296;SDS011;37380;45.186;9.792;2023-10-19T04:52:46;89.97;;;56.47;;
51296;SDS011;37380;45.186;9.792;2023-10-19T04:55:16;68.28;;;55.67;;
51296;SDS011;37380;45.186;9.792;2023-10-19T04:57:43;74.35;;;56.53;;
51296;SDS011;37380;45.186;9.792;2023-10-19T05:00:17;75.53;;;55.67;;
51296;SDS011;37380;45.186;9.792;2023-10-19T05:03:19;80.60;;;58.50;;
51296;SDS011;37380;45.186;9.792;2023-10-19T05:06:01;79.47;;;60.83;;
51296;SDS011;37380;45.186;9.792;2023-10-19T05:08:28;77.22;;;57.80;;
51296;SDS011;37380;45.186;9.792;2023-10-19T05:10:56;68.72;;;53.45;;
51296;SDS011;37380;45.186;9.792;2023-10-19T05:13:35;76.75;;;55.45;;
51296;SDS011;37380;45.186;9.792;2023-10-19T05:16:35;76.80;;;56.60;;
51296;SDS011;37380;45.186;9.792;2023-10-19T05:19:37;73.82;;;57.85;;
51296;SDS011;37380;45.186;9.792;2023-10-19T05:22:31;83.03;;;57.13;;
51296;SDS011;37380;45.186;9.792;2023-10-19T05:25:05;77.90;;;56.78;;
51296;SDS011;37380;45.186;9.792;2023-10-19T05:27:59;75.70;;;57.90;;
51296;SDS011;37380;45.186;9.792;2023-10-19T05:30:27;78.32;;;59.00;;
51296;SDS011;37380;45.186;9.792;2023-10-19T05:32:56;85.43;;;60.92;;
51296;SDS011;37380;45.186;9.792;2023-10-19T05:35:24;81.60;;;60.42;;
51296;SDS011;37380;45.186;9.792;2023-10-19T05:37:59;83.53;;;60.83;;
51296;SDS011;37380;45.186;9.792;2023-10-19T05:40:53;80.65;;;62.10;;
51296;SDS011;37380;45.186;9.792;2023-10-19T05:43:22;87.68;;;65.22;;
51296;SDS011;37380;45.186;9.792;2023-10-19T05:45:50;84.22;;;65.50;;
51296;SDS011;37380;45.186;9.792;2023-10-19T05:48:19;89.65;;;64.13;;
51296;SDS011;37380;45.186;9.792;2023-10-19T05:50:47;87.85;;;64.32;;
51296;SDS011;37380;45.186;9.792;2023-10-19T05:53:14;90.03;;;67.03;;
51296;SDS011;37380;45.186;9.792;2023-10-19T05:55:45;91.55;;;67.25;;
51296;SDS011;37380;45.186;9.792;2023-10-19T05:58:12;93.32;;;67.53;;
51296;SDS011;37380;45.186;9.792;2023-10-19T06:00:46;96.60;;;63.83;;
51296;SDS011;37380;45.186;9.792;2023-10-19T06:03:40;87.28;;;62.92;;
51296;SDS011;37380;45.186;9.792;2023-10-19T06:06:08;93.00;;;65.57;;
51296;SDS011;37380;45.186;9.792;2023-10-19T06:08:35;91.85;;;67.30;;
51296;SDS011;37380;45.186;9.792;2023-10-19T06:11:22;89.70;;;66.32;;
51296;SDS011;37380;45.186;9.792;2023-10-19T06:14:25;102.97;;;68.82;;
51296;SDS011;37380;45.186;9.792;2023-10-19T06:17:23;94.50;;;68.38;;
51296;SDS011;37380;45.186;9.792;2023-10-19T06:19:50;90.20;;;65.78;;
51296;SDS011;37380;45.186;9.792;2023-10-19T06:22:17;97.32;;;70.55;;
51296;SDS011;37380;45.186;9.792;2023-10-19T06:24:45;80.53;;;65.95;;
51296;SDS011;37380;45.186;9.792;2023-10-19T06:27:12;93.25;;;69.95;;
51296;SDS011;37380;45.186;9.792;2023-10-19T06:29:39;100.50;;;66.72;;
51296;SDS011;37380;45.186;9.792;2023-10-19T06:32:06;91.10;;;70.47;;
51296;SDS011;37380;45.186;9.792;2023-10-19T06:34:34;95.95;;;70.50;;
51296;SDS011;37380;45.186;9.792;2023-10-19T06:37:22;94.95;;;67.75;;
51296;SDS011;37380;45.186;9.792;2023-10-19T06:40:10;91.38;;;67.43;;
51296;SDS011;37380;45.186;9.792;2023-10-19T06:42:38;102.60;;;67.10;;
51296;SDS011;37380;45.186;9.792;2023-10-19T06:45:06;91.95;;;66.88;;
51296;SDS011;37380;45.186;9.792;2023-10-19T06:47:34;82.25;;;65.35;;
51296;SDS011;37380;45.186;9.792;2023-10-19T06:50:05;76.15;;;63.60;;
51296;SDS011;37380;45.186;9.792;2023-10-19T06:52:39;89.60;;;64.88;;
51296;SDS011;37380;45.186;9.792;2023-10-19T06:55:07;79.78;;;63.95;;
51296;SDS011;37380;45.186;9.792;2023-10-19T06:57:40;84.13;;;66.13;;
51296;SDS011;37380;45.186;9.792;2023-10-19T07:00:18;88.97;;;66.13;;
51296;SDS011;37380;45.186;9.792;2023-10-19T07:03:22;84.97;;;66.50;;
51296;SDS011;37380;45.186;9.792;2023-10-19T07:06:23;79.25;;;64.93;;
51296;SDS011;37380;45.186;9.792;2023-10-19T07:09:24;93.60;;;66.47;;
51296;SDS011;37380;45.186;9.792;2023-10-19T07:12:25;81.45;;;63.70;;
51296;SDS011;37380;45.186;9.792;2023-10-19T07:15:27;87.95;;;66.63;;
51296;SDS011;37380;45.186;9.792;2023-10-19T07:18:28;78.03;;;65.18;;
51296;SDS011;37380;45.186;9.792;2023-10-19T07:21:30;85.05;;;66.90;;
51296;SDS011;37380;45.186;9.792;2023-10-19T07:24:07;86.70;;;67.70;;
51296;SDS011;37380;45.186;9.792;2023-10-19T07:26:37;97.82;;;67.40;;
51296;SDS011;37380;45.186;9.792;2023-10-19T07:29:20;93.28;;;67.28;;
51296;SDS011;37380;45.186;9.792;2023-10-19T07:31:47;91.07;;;67.88;;
51296;SDS011;37380;45.186;9.792;2023-10-19T07:34:14;86.57;;;64.40;;
51296;SDS011;37380;45.186;9.792;2023-10-19T07:36:48;83.13;;;62.63;;
51296;SDS011;37380;45.186;9.792;2023-10-19T07:39:46;78.53;;;62.78;;
51296;SDS011;37380;45.186;9.792;2023-10-19T07:42:14;78.05;;;65.25;;
51296;SDS011;37380;45.186;9.792;2023-10-19T07:44:41;76.22;;;64.72;;
51296;SDS011;37380;45.186;9.792;2023-10-19T07:47:15;81.43;;;65.28;;
51296;SDS011;37380;45.186;9.792;2023-10-19T07:50:17;80.80;;;63.60;;
51296;SDS011;37380;45.186;9.792;2023-10-19T07:53:12;86.13;;;66.35;;
51296;SDS011;37380;45.186;9.792;2023-10-19T07:55:41;88.53;;;67.85;;
51296;SDS011;37380;45.186;9.792;2023-10-19T07:58:09;83.43;;;66.07;;
51296;SDS011;37380;45.186;9.792;2023-10-19T08:00:43;73.20;;;62.97;;
51296;SDS011;37380;45.186;9.792;2023-10-19T08:03:40;76.95;;;62.50;;
51296;SDS011;37380;45.186;9.792;2023-10-19T08:06:07;77.47;;;62.00;;
51296;SDS011;37380;45.186;9.792;2023-10-19T08:08:34;78.80;;;61.38;;
51296;SDS011;37380;45.186;9.792;2023-10-19T08:11:02;74.55;;;58.35;;
51296;SDS011;37380;45.186;9.792;2023-10-19T08:13:29;73.18;;;59.63;;
51296;SDS011;37380;45.186;9.792;2023-10-19T08:15:58;68.97;;;58.50;;
51296;SDS011;37380;45.186;9.792;2023-10-19T08:18:33;70.63;;;61.45;;
51296;SDS011;37380;45.186;9.792;2023-10-19T08:21:28;72.18;;;59.35;;
51296;SDS011;37380;45.186;9.792;2023-10-19T08:23:55;74.53;;;60.60;;
51296;SDS011;37380;45.186;9.792;2023-10-19T08:26:22;67.55;;;56.80;;
51296;SDS011;37380;45.186;9.792;2023-10-19T08:28:49;70.95;;;59.40;;
51296;SDS011;37380;45.186;9.792;2023-10-19T08:31:17;72.72;;;61.15;;
51296;SDS011;37380;45.186;9.792;2023-10-19T08:33:45;76.38;;;61.20;;
51296;SDS011;37380;45.186;9.792;2023-10-19T08:36:20;64.72;;;56.45;;
51296;SDS011;37380;45.186;9.792;2023-10-19T08:39:20;66.72;;;54.97;;
51296;SDS011;37380;45.186;9.792;2023-10-19T08:42:21;60.65;;;52.63;;
51296;SDS011;37380;45.186;9.792;2023-10-19T08:45:17;62.65;;;54.53;;
51296;SDS011;37380;45.186;9.792;2023-10-19T08:47:54;57.70;;;51.42;;
51296;SDS011;37380;45.186;9.792;2023-10-19T08:50:27;56.30;;;50.58;;
51296;SDS011;37380;45.186;9.792;2023-10-19T08:52:56;51.53;;;46.08;;
51296;SDS011;37380;45.186;9.792;2023-10-19T08:55:25;58.63;;;47.55;;
51296;SDS011;37380;45.186;9.792;2023-10-19T08:58:12;61.63;;;51.50;;
51296;SDS011;37380;45.186;9.792;2023-10-19T09:00:50;54.42;;;48.17;;
51296;SDS011;37380;45.186;9.792;2023-10-19T09:03:45;56.45;;;49.40;;
51296;SDS011;37380;45.186;9.792;2023-10-19T09:06:13;56.25;;;50.17;;
51296;SDS011;37380;45.186;9.792;2023-10-19T09:08:42;56.97;;;48.20;;
51296;SDS011;37380;45.186;9.792;2023-10-19T09:11:12;56.63;;;49.10;;
51296;SDS011;37380;45.186;9.792;2023-10-19T09:13:46;55.40;;;49.53;;
51296;SDS011;37380;45.186;9.792;2023-10-19T09:16:20;52.33;;;46.72;;
51296;SDS011;37380;45.186;9.792;2023-10-19T09:18:48;46.67;;;42.20;;
51296;SDS011;37380;45.186;9.792;2023-10-19T09:21:18;50.10;;;44.75;;
51296;SDS011;37380;45.186;9.792;2023-10-19T09:24:00;52.15;;;46.88;;
51296;SDS011;37380;45.186;9.792;2023-10-19T09:27:03;52.25;;;46.65;;
51296;SDS011;37380;45.186;9.792;2023-10-19T09:30:05;51.15;;;45.78;;
51296;SDS011;37380;45.186;9.792;2023-10-19T09:33:05;52.45;;;47.15;;
51296;SDS011;37380;45.186;9.792;2023-10-19T09:35:40;50.83;;;45.40;;
51296;SDS011;37380;45.186;9.792;2023-10-19T09:41:24;42.95;;;38.20;;
51296;SDS011;37380;45.186;9.792;2023-10-19T09:44:05;40.42;;;36.15;;
51296;SDS011;37380;45.186;9.792;2023-10-19T09:46:37;39.95;;;35.15;;
51296;SDS011;37380;45.186;9.792;2023-10-19T09:49:07;41.95;;;36.58;;
51296;SDS011;37380;45.186;9.792;2023-10-19T09:51:41;45.83;;;40.40;;
51296;SDS011;37380;45.186;9.792;2023-10-19T09:57:16;49.30;;;44.05;;
51296;SDS011;37380;45.186;9.792;2023-10-19T09:59:59;46.00;;;41.42;;
51296;SDS011;37380;45.186;9.792;2023-10-19T10:03:04;50.15;;;44.95;;
51296;SDS011;37380;45.186;9.792;2023-10-19T10:06:01;49.97;;;43.58;;
51296;SDS011;37380;45.186;9.792;2023-10-19T10:08:32;53.33;;;47.72;;
51296;SDS011;37380;45.186;9.792;2023-10-19T10:11:13;51.13;;;45.85;;
51296;SDS011;37380;45.186;9.792;2023-10-19T10:14:39;52.28;;;46.80;;
51296;SDS011;37380;45.186;9.792;2023-10-19T10:17:35;49.78;;;44.72;;
51296;SDS011;37380;45.186;9.792;2023-10-19T10:20:36;66.68;;;48.58;;
51296;SDS011;37380;45.186;9.792;2023-10-19T10:23:31;52.20;;;46.75;;
51296;SDS011;37380;45.186;9.792;2023-10-19T10:26:01;52.28;;;46.95;;
51296;SDS011;37380;45.186;9.792;2023-10-19T10:28:31;51.42;;;45.53;;
51296;SDS011;37380;45.186;9.792;2023-10-19T10:33:42;49.55;;;43.92;;
51296;SDS011;37380;45.186;9.792;2023-10-19T10:36:18;53.47;;;48.03;;
51296;SDS011;37380;45.186;9.792;2023-10-19T10:38:47;58.10;;;48.13;;
51296;SDS011;37380;45.186;9.792;2023-10-19T10:41:22;46.30;;;41.88;;
51296;SDS011;37380;45.186;9.792;2023-10-19T10:43:55;40.65;;;36.47;;
51296;SDS011;37380;45.186;9.792;2023-10-19T10:46:25;43.38;;;36.42;;
51296;SDS011;37380;45.186;9.792;2023-10-19T10:49:07;36.33;;;32.65;;
51296;SDS011;37380;45.186;9.792;2023-10-19T10:52:08;36.83;;;33.20;;
51296;SDS011;37380;45.186;9.792;2023-10-19T10:55:12;38.28;;;34.78;;
51296;SDS011;37380;45.186;9.792;2023-10-19T10:58:08;41.65;;;37.45;;
51296;SDS011;37380;45.186;9.792;2023-10-19T11:00:43;39.20;;;34.88;;
51296;SDS011;37380;45.186;9.792;2023-10-19T11:03:47;37.20;;;33.40;;
51296;SDS011;37380;45.186;9.792;2023-10-19T11:06:52;35.15;;;31.63;;
51296;SDS011;37380;45.186;9.792;2023-10-19T11:09:47;35.83;;;32.30;;
51296;SDS011;37380;45.186;9.792;2023-10-19T11:12:14;30.95;;;28.08;;
51296;SDS011;37380;45.186;9.792;2023-10-19T11:14:52;32.13;;;28.98;;
51296;SDS011;37380;45.186;9.792;2023-10-19T11:17:26;34.42;;;31.00;;
51296;SDS011;37380;45.186;9.792;2023-10-19T11:19:57;32.88;;;29.65;;
51296;SDS011;37380;45.186;9.792;2023-10-19T11:22:26;30.33;;;27.23;;
51296;SDS011;37380;45.186;9.792;2023-10-19T11:24:53;33.30;;;30.33;;
51296;SDS011;37380;45.186;9.792;2023-10-19T11:27:25;33.40;;;30.42;;
51296;SDS011;37380;45.186;9.792;2023-10-19T11:29:59;36.65;;;33.00;;
51296;SDS011;37380;45.186;9.792;2023-10-19T11:32:38;36.70;;;32.90;;
51296;SDS011;37380;45.186;9.792;2023-10-19T11:35:11;40.83;;;36.75;;
51296;SDS011;37380;45.186;9.792;2023-10-19T11:38:12;38.75;;;34.92;;
51296;SDS011;37380;45.186;9.792;2023-10-19T11:41:07;42.13;;;37.78;;
51296;SDS011;37380;45.186;9.792;2023-10-19T11:43:35;42.88;;;37.60;;
51296;SDS011;37380;45.186;9.792;2023-10-19T11:46:03;40.45;;;36.55;;
51296;SDS011;37380;45.186;9.792;2023-10-19T11:48:40;40.40;;;36.47;;
51296;SDS011;37380;45.186;9.792;2023-10-19T11:51:41;38.50;;;34.65;;
51296;SDS011;37380;45.186;9.792;2023-10-19T11:54:42;42.10;;;37.70;;
51296;SDS011;37380;45.186;9.792;2023-10-19T11:57:35;42.10;;;37.90;;
51296;SDS011;37380;45.186;9.792;2023-10-19T12:00:37;42.40;;;38.08;;
51296;SDS011;37380;45.186;9.792;2023-10-19T12:03:41;42.47;;;38.25;;
51296;SDS011;37380;45.186;9.792;2023-10-19T12:06:46;40.38;;;36.47;;
51296;SDS011;37380;45.186;9.792;2023-10-19T12:09:13;38.67;;;34.85;;
51296;SDS011;37380;45.186;9.792;2023-10-19T12:11:43;38.00;;;34.10;;
51296;SDS011;37380;45.186;9.792;2023-10-19T12:14:14;38.65;;;34.70;;
51296;SDS011;37380;45.186;9.792;2023-10-19T12:16:41;35.50;;;32.10;;
51296;SDS011;37380;45.186;9.792;2023-10-19T12:19:17;32.70;;;29.38;;
51296;SDS011;37380;45.186;9.792;2023-10-19T12:21:46;37.40;;;33.55;;
51296;SDS011;37380;45.186;9.792;2023-10-19T12:24:13;32.50;;;29.60;;
51296;SDS011;37380;45.186;9.792;2023-10-19T12:26:42;31.27;;;28.48;;
51296;SDS011;37380;45.186;9.792;2023-10-19T12:29:09;30.60;;;27.65;;
51296;SDS011;37380;45.186;9.792;2023-10-19T12:31:38;31.75;;;28.88;;
51296;SDS011;37380;45.186;9.792;2023-10-19T12:34:07;31.27;;;28.35;;
51296;SDS011;37380;45.186;9.792;2023-10-19T12:36:42;29.60;;;27.00;;
51296;SDS011;37380;45.186;9.792;2023-10-19T12:39:41;31.10;;;28.38;;
51296;SDS011;37380;45.186;9.792;2023-10-19T12:42:18;31.02;;;27.92;;
51296;SDS011;37380;45.186;9.792;2023-10-19T12:44:46;33.08;;;29.63;;
51296;SDS011;37380;45.186;9.792;2023-10-19T12:47:15;34.13;;;30.85;;
51296;SDS011;37380;45.186;9.792;2023-10-19T12:50:05;33.40;;;30.23;;
51296;SDS011;37380;45.186;9.792;2023-10-19T12:53:23;43.72;;;37.75;;
51296;SDS011;37380;45.186;9.792;2023-10-19T12:56:27;47.88;;;39.63;;
51296;SDS011;37380;45.186;9.792;2023-10-19T12:59:29;52.15;;;46.67;;
51296;SDS011;37380;45.186;9.792;2023-10-19T13:02:31;53.42;;;47.90;;
51296;SDS011;37380;45.186;9.792;2023-10-19T13:05:35;47.55;;;42.67;;
51296;SDS011;37380;45.186;9.792;2023-10-19T13:08:35;46.60;;;41.75;;
51296;SDS011;37380;45.186;9.792;2023-10-19T13:11:37;45.83;;;41.33;;
51296;SDS011;37380;45.186;9.792;2023-10-19T13:14:38;45.25;;;40.65;;
51296;SDS011;37380;45.186;9.792;2023-10-19T13:17:26;44.65;;;40.05;;
51296;SDS011;37380;45.186;9.792;2023-10-19T13:19:53;44.95;;;40.45;;
51296;SDS011;37380;45.186;9.792;2023-10-19T13:22:30;41.28;;;37.10;;
51296;SDS011;37380;45.186;9.792;2023-10-19T13:25:32;45.13;;;40.58;;
51296;SDS011;37380;45.186;9.792;2023-10-19T13:28:51;46.78;;;41.88;;
51296;SDS011;37380;45.186;9.792;2023-10-19T13:31:22;45.90;;;41.28;;
51296;SDS011;37380;45.186;9.792;2023-10-19T13:33:49;48.33;;;37.08;;
51296;SDS011;37380;45.186;9.792;2023-10-19T13:36:16;37.92;;;34.25;;
51296;SDS011;37380;45.186;9.792;2023-10-19T13:38:43;40.15;;;36.10;;
51296;SDS011;37380;45.186;9.792;2023-10-19T13:41:11;40.17;;;35.85;;
51296;SDS011;37380;45.186;9.792;2023-10-19T13:43:39;37.17;;;33.25;;
51296;SDS011;37380;45.186;9.792;2023-10-19T13:46:06;37.58;;;33.72;;
51296;SDS011;37380;45.186;9.792;2023-10-19T13:48:43;36.40;;;32.67;;
51296;SDS011;37380;45.186;9.792;2023-10-19T13:51:44;43.25;;;32.40;;
51296;SDS011;37380;45.186;9.792;2023-10-19T13:54:45;35.50;;;31.83;;
51296;SDS011;37380;45.186;9.792;2023-10-19T13:57:39;32.17;;;28.80;;
51296;SDS011;37380;45.186;9.792;2023-10-19T14:00:13;39.78;;;35.60;;
51296;SDS011;37380;45.186;9.792;2023-10-19T14:03:18;37.95;;;33.97;;
51296;SDS011;37380;45.186;9.792;2023-10-19T14:06:19;38.17;;;34.13;;
51296;SDS011;37380;45.186;9.792;2023-10-19T14:09:21;35.72;;;32.15;;
51296;SDS011;37380;45.186;9.792;2023-10-19T14:12:22;35.47;;;31.70;;
51296;SDS011;37380;45.186;9.792;2023-10-19T14:15:23;35.65;;;32.03;;
51296;SDS011;37380;45.186;9.792;2023-10-19T14:18:18;38.45;;;32.88;;
51296;SDS011;37380;45.186;9.792;2023-10-19T14:20:45;37.97;;;34.22;;
51296;SDS011;37380;45.186;9.792;2023-10-19T14:23:12;38.03;;;34.08;;
51296;SDS011;37380;45.186;9.792;2023-10-19T14:25:40;41.90;;;37.42;;
51296;SDS011;37380;45.186;9.792;2023-10-19T14:28:08;40.45;;;36.13;;
51296;SDS011;37380;45.186;9.792;2023-10-19T14:30:36;44.78;;;36.72;;
51296;SDS011;37380;45.186;9.792;2023-10-19T14:33:03;39.63;;;35.90;;
51296;SDS011;37380;45.186;9.792;2023-10-19T14:35:36;39.65;;;35.67;;
51296;SDS011;37380;45.186;9.792;2023-10-19T14:38:09;42.00;;;37.80;;
51296;SDS011;37380;45.186;9.792;2023-10-19T14:40:38;39.85;;;34.38;;
51296;SDS011;37380;45.186;9.792;2023-10-19T14:43:14;35.95;;;32.63;;
51296;SDS011;37380;45.186;9.792;2023-10-19T14:45:41;36.00;;;32.42;;
51296;SDS011;37380;45.186;9.792;2023-10-19T14:48:10;39.15;;;35.15;;
51296;SDS011;37380;45.186;9.792;2023-10-19T14:50:38;44.80;;;35.17;;
51296;SDS011;37380;45.186;9.792;2023-10-19T14:53:12;35.92;;;32.22;;
51296;SDS011;37380;45.186;9.792;2023-10-19T14:56:14;33.00;;;29.70;;
51296;SDS011;37380;45.186;9.792;2023-10-19T14:59:18;33.38;;;29.88;;
51296;SDS011;37380;45.186;9.792;2023-10-19T15:02:19;28.90;;;25.52;;
51296;SDS011;37380;45.186;9.792;2023-10-19T15:05:20;29.25;;;26.52;;
51296;SDS011;37380;45.186;9.792;2023-10-19T15:08:21;29.73;;;26.60;;
51296;SDS011;37380;45.186;9.792;2023-10-19T15:11:25;31.53;;;28.20;;
51296;SDS011;37380;45.186;9.792;2023-10-19T15:14:19;31.55;;;28.58;;
51296;SDS011;37380;45.186;9.792;2023-10-19T15:16:46;31.40;;;28.30;;
51296;SDS011;37380;45.186;9.792;2023-10-19T15:19:13;30.10;;;27.05;;
51296;SDS011;37380;45.186;9.792;2023-10-19T15:21:45;25.83;;;23.40;;
51296;SDS011;37380;45.186;9.792;2023-10-19T15:24:12;27.38;;;24.60;;
51296;SDS011;37380;45.186;9.792;2023-10-19T15:26:39;32.17;;;28.80;;
51296;SDS011;37380;45.186;9.792;2023-10-19T15:29:14;32.25;;;27.33;;
51296;SDS011;37380;45.186;9.792;2023-10-19T15:31:48;29.33;;;26.42;;
51296;SDS011;37380;45.186;9.792;2023-10-19T15:34:49;28.05;;;23.77;;
51296;SDS011;37380;45.186;9.792;2023-10-19T15:37:31;27.83;;;25.35;;
51296;SDS011;37380;45.186;9.792;2023-10-19T15:39:58;28.83;;;25.77;;
51296;SDS011;37380;45.186;9.792;2023-10-19T15:42:25;29.85;;;26.70;;
51296;SDS011;37380;45.186;9.792;2023-10-19T15:44:53;30.27;;;27.02;;
51296;SDS011;37380;45.186;9.792;2023-10-19T15:47:27;31.90;;;28.77;;
51296;SDS011;37380;45.186;9.792;2023-10-19T15:50:21;29.75;;;26.58;;
51296;SDS011;37380;45.186;9.792;2023-10-19T15:52:49;29.75;;;26.65;;